Pagrindinis puslapis
METAR-TAF:

METAR-TAF

Oro uostai :

Bintulu, Malaizija

platuma: 03-12N, ilguma: 113-02E, Aukštis: 2 m

Dabartinis oras

Ataskaita buvo paskelbta 1 valandą ir 17 minutes, ne 07:00 UTC
Vėjas 10 kt iš Šiaurės, svyruoja nuo Vakarų ir Šiaurės Rytų
Temperatūra 30°C
Drėgmė 75%
Slėgis 1010 hPa
Matomumas: 6000 m
Išsisklaidę debesys ne aukštis 1600 ft
Su prošvaistėmis ne aukštis 30000 ft

METAR: WBGB 230700Z 35010KT 280V050 6000 SCT016 BKN300 30/25 Q1010

Laikas: 16:17 (08:17 UTC)

Prognozė

Ataskaita buvo paskelbta 3 valandos ir 17 minutes, ne 05:00 UTC
Prognozė galioja nuo 23 metu 06 UTC su 24 metu 06 UTC
Vėjas 3 kt nuo kintamojo kryptimis
Matomumas: 8000 m
Išsisklaidę debesys ne aukštis 1400 ft

TAF: WBGB 230500Z 2306/2406 VRB03KT 8000 SCT014

Orai ataskaitas ir orų prognozės (METAR, TAF).

turimą stotys yra geltonos ir raudonos taškus žemėlapyje.

Perkelti pele per norėdami pamatyti stoties vardą.

Tada spustelėkite, norėdami matyti oro stebėjimo ir prognozės.

Norėdami pakeisti žemėlapį: spustelėkite ant žalios mygtukų su juodo kryžiaus žemyn,; žalią mygtuką su brūkšneliu, jei norite nutolinti; arba žalių rodyklių gretimoms žemėlapius.


METAR-TAF: